createdAt,value
2023-05-24T00:00:00.421Z,650.00
2023-05-24T00:01:00.501Z,658.00
2023-05-24T00:02:00.548Z,649.00
2023-05-24T00:03:00.691Z,654.00
2023-05-24T00:04:00.864Z,648.00
2023-05-24T00:05:00.829Z,652.00
2023-05-24T00:06:00.754Z,653.00
2023-05-24T00:07:00.763Z,644.00
2023-05-24T00:08:00.812Z,657.00
2023-05-24T00:09:00.804Z,657.00
2023-05-24T00:10:00.891Z,656.00
2023-05-24T00:11:00.926Z,654.00
2023-05-24T00:12:00.986Z,641.00
2023-05-24T00:13:01.057Z,639.00
2023-05-24T00:14:01.068Z,635.00
2023-05-24T00:15:01.139Z,633.00
2023-05-24T00:16:01.146Z,633.00
2023-05-24T00:17:01.218Z,636.00
2023-05-24T00:18:01.325Z,638.00
2023-05-24T00:19:01.303Z,639.00
2023-05-24T00:20:01.368Z,638.00
2023-05-24T00:21:01.448Z,635.00
2023-05-24T00:22:01.436Z,632.00
2023-05-24T00:23:01.479Z,640.00
2023-05-24T00:24:01.529Z,643.00
2023-05-24T00:25:01.560Z,635.00
2023-05-24T00:26:01.603Z,640.00
2023-05-24T00:27:01.679Z,644.00
2023-05-24T00:28:01.715Z,644.00
2023-05-24T00:29:01.776Z,644.00
2023-05-24T00:30:01.826Z,642.00
2023-05-24T00:31:01.892Z,641.00
2023-05-24T00:32:01.932Z,643.00
2023-05-24T00:33:02.005Z,642.00
2023-05-24T00:34:01.997Z,642.00
2023-05-24T00:35:02.085Z,643.00
2023-05-24T00:36:02.113Z,640.00
2023-05-24T00:37:02.150Z,639.00
2023-05-24T00:38:02.193Z,637.00
2023-05-24T00:39:02.250Z,641.00
2023-05-24T00:40:02.327Z,632.00
2023-05-24T00:41:02.323Z,635.00
2023-05-24T00:42:02.400Z,636.00
2023-05-24T00:43:02.437Z,633.00
2023-05-24T00:44:02.495Z,631.00
2023-05-24T00:45:02.548Z,629.00
2023-05-24T00:46:02.662Z,626.00
2023-05-24T00:47:02.670Z,620.00
2023-05-24T00:48:02.750Z,625.00
2023-05-24T00:49:02.760Z,621.00
2023-05-24T00:50:02.795Z,611.00
2023-05-24T00:51:02.879Z,612.00
2023-05-24T00:52:02.957Z,611.00
2023-05-24T00:53:02.982Z,608.00
2023-05-24T00:54:03.080Z,613.00
2023-05-24T00:55:03.133Z,615.00
2023-05-24T00:56:03.160Z,614.00
2023-05-24T00:57:03.226Z,610.00
2023-05-24T00:58:03.258Z,608.00
2023-05-24T00:59:03.346Z,610.00
2023-05-24T01:00:03.411Z,608.00
2023-05-24T01:01:03.513Z,603.00
2023-05-24T01:02:03.685Z,609.00
2023-05-24T01:03:03.605Z,604.00
2023-05-24T01:04:03.629Z,603.00
2023-05-24T01:05:03.683Z,600.00
2023-05-24T01:06:03.762Z,601.00
2023-05-24T01:07:03.845Z,602.00
2023-05-24T01:08:03.864Z,600.00
2023-05-24T01:09:03.939Z,603.00
2023-05-24T01:10:03.995Z,602.00
2023-05-24T01:11:04.059Z,607.00
2023-05-24T01:12:04.102Z,609.00
2023-05-24T01:13:04.179Z,609.00
2023-05-24T01:14:04.207Z,610.00
2023-05-24T01:15:04.289Z,612.00
2023-05-24T01:16:04.368Z,610.00
2023-05-24T01:17:04.422Z,619.00
2023-05-24T01:18:04.566Z,610.00
2023-05-24T01:19:04.555Z,609.00
2023-05-24T01:20:04.611Z,606.00
2023-05-24T01:21:04.674Z,607.00
2023-05-24T01:22:04.769Z,608.00
2023-05-24T01:23:04.778Z,614.00
2023-05-24T01:24:04.852Z,610.00
2023-05-24T01:25:04.915Z,614.00
2023-05-24T01:26:05.003Z,612.00
2023-05-24T01:27:05.071Z,613.00
2023-05-24T01:28:05.128Z,605.00
2023-05-24T01:29:05.216Z,608.00
2023-05-24T01:30:05.239Z,608.00
2023-05-24T01:31:05.325Z,606.00
2023-05-24T01:32:05.344Z,616.00
2023-05-24T01:33:05.400Z,610.00
2023-05-24T01:34:05.453Z,612.00
2023-05-24T01:35:05.532Z,611.00
2023-05-24T01:36:05.555Z,618.00
2023-05-24T01:37:05.653Z,619.00
2023-05-24T01:38:05.726Z,621.00
2023-05-24T01:39:05.760Z,618.00
2023-05-24T01:40:05.840Z,616.00
2023-05-24T01:41:05.931Z,620.00
2023-05-24T01:42:05.952Z,618.00
2023-05-24T01:43:05.991Z,622.00
2023-05-24T01:44:06.051Z,624.00
2023-05-24T01:45:06.090Z,623.00
2023-05-24T01:46:06.162Z,627.00
2023-05-24T01:47:06.252Z,623.00
2023-05-24T01:48:06.371Z,627.00
2023-05-24T01:49:06.286Z,623.00
2023-05-24T01:50:06.308Z,629.00
2023-05-24T01:51:06.299Z,629.00
2023-05-24T01:52:06.422Z,626.00
2023-05-24T01:53:06.395Z,620.00
2023-05-24T01:54:06.398Z,618.00
2023-05-24T01:55:06.401Z,623.00
2023-05-24T01:56:06.448Z,620.00
2023-05-24T01:57:06.458Z,614.00
2023-05-24T01:58:06.483Z,619.00
2023-05-24T01:59:06.526Z,622.00
2023-05-24T02:00:06.549Z,622.00
2023-05-24T02:01:06.643Z,626.00
2023-05-24T02:02:06.624Z,628.00
2023-05-24T02:03:06.798Z,624.00
2023-05-24T02:04:06.636Z,627.00
2023-05-24T02:05:06.681Z,632.00
2023-05-24T02:06:06.719Z,631.00
2023-05-24T02:07:06.727Z,635.00
2023-05-24T02:08:06.800Z,633.00
2023-05-24T02:09:06.837Z,634.00
2023-05-24T02:10:06.810Z,634.00
2023-05-24T02:11:06.868Z,639.00
2023-05-24T02:12:06.937Z,635.00
2023-05-24T02:13:06.985Z,633.00
2023-05-24T02:14:07.016Z,631.00
2023-05-24T02:15:07.077Z,627.00
2023-05-24T02:16:07.063Z,633.00
2023-05-24T02:17:07.162Z,636.00
2023-05-24T02:18:07.137Z,633.00
2023-05-24T02:19:07.160Z,628.00
2023-05-24T02:20:07.221Z,632.00
2023-05-24T02:21:07.181Z,630.00
2023-05-24T02:22:07.224Z,630.00
2023-05-24T02:23:07.244Z,623.00
2023-05-24T02:24:07.266Z,622.00
2023-05-24T02:25:07.275Z,620.00
2023-05-24T02:27:07.289Z,618.00
2023-05-24T02:28:07.265Z,614.00
2023-05-24T02:29:07.295Z,613.00
2023-05-24T02:30:07.259Z,613.00
2023-05-24T02:31:07.281Z,614.00
2023-05-24T02:32:07.261Z,610.00
2023-05-24T02:33:07.303Z,612.00
2023-05-24T02:34:07.253Z,610.00
2023-05-24T02:35:07.270Z,613.00
2023-05-24T02:36:07.271Z,614.00
2023-05-24T02:37:07.282Z,615.00
2023-05-24T02:38:07.280Z,616.00
2023-05-24T02:39:07.286Z,618.00
2023-05-24T02:40:07.284Z,624.00
2023-05-24T02:41:07.322Z,629.00
2023-05-24T02:42:07.333Z,627.00
2023-05-24T02:43:07.357Z,625.00
2023-05-24T02:44:07.339Z,629.00
2023-05-24T02:45:07.360Z,628.00
2023-05-24T02:46:07.410Z,631.00
2023-05-24T02:47:07.409Z,633.00
2023-05-24T02:48:07.452Z,634.00
2023-05-24T02:49:07.433Z,633.00
2023-05-24T02:50:07.454Z,632.00
2023-05-24T02:51:07.482Z,634.00
2023-05-24T02:52:07.445Z,638.00
2023-05-24T02:53:07.457Z,638.00
2023-05-24T02:54:07.436Z,637.00
2023-05-24T02:55:07.494Z,636.00
2023-05-24T02:56:07.473Z,636.00
2023-05-24T02:57:07.429Z,630.00
2023-05-24T02:58:07.448Z,630.00
2023-05-24T02:59:07.442Z,627.00
2023-05-24T03:00:07.422Z,628.00
2023-05-24T03:01:07.428Z,625.00
2023-05-24T03:02:07.470Z,621.00
2023-05-24T03:03:07.498Z,623.00
2023-05-24T03:04:07.487Z,620.00
2023-05-24T03:05:07.416Z,620.00
2023-05-24T03:06:07.407Z,624.00
2023-05-24T03:07:07.413Z,626.00
2023-05-24T03:08:07.395Z,630.00
2023-05-24T03:09:07.431Z,630.00
2023-05-24T03:10:07.406Z,628.00
2023-05-24T03:11:07.436Z,628.00
2023-05-24T03:12:07.400Z,633.00
2023-05-24T03:13:07.396Z,632.00
2023-05-24T03:14:07.409Z,632.00
2023-05-24T03:15:07.415Z,633.00
2023-05-24T03:16:07.432Z,636.00
2023-05-24T03:17:07.376Z,633.00
2023-05-24T03:18:07.478Z,627.00
2023-05-24T03:19:09.879Z,631.00
2023-05-24T03:20:07.502Z,632.00
2023-05-24T03:21:07.453Z,634.00
2023-05-24T03:22:07.398Z,638.00
2023-05-24T03:23:07.379Z,636.00
2023-05-24T03:24:07.358Z,638.00
2023-05-24T03:25:07.383Z,645.00
2023-05-24T03:26:07.343Z,645.00
2023-05-24T03:27:07.363Z,645.00
2023-05-24T03:28:07.349Z,647.00
2023-05-24T03:29:07.367Z,645.00
2023-05-24T03:30:07.386Z,644.00
2023-05-24T03:31:07.321Z,642.00
2023-05-24T03:32:07.367Z,640.00
2023-05-24T03:33:07.355Z,640.00
2023-05-24T03:34:07.290Z,641.00
2023-05-24T03:35:07.299Z,642.00
2023-05-24T03:36:07.277Z,644.00
2023-05-24T03:37:07.269Z,644.00
2023-05-24T03:38:07.249Z,639.00
2023-05-24T03:39:07.253Z,631.00
2023-05-24T03:40:07.290Z,628.00
2023-05-24T03:41:07.252Z,628.00
2023-05-24T03:42:07.267Z,620.00
2023-05-24T03:43:07.248Z,619.00
2023-05-24T03:44:07.252Z,620.00
2023-05-24T03:45:07.235Z,619.00
2023-05-24T03:46:07.217Z,618.00
2023-05-24T03:47:07.192Z,612.00
2023-05-24T03:48:07.193Z,614.00
2023-05-24T03:49:07.205Z,610.00
2023-05-24T03:50:07.176Z,608.00
2023-05-24T03:51:07.172Z,605.00
2023-05-24T03:52:07.190Z,611.00
2023-05-24T03:53:07.155Z,609.00
2023-05-24T03:54:07.186Z,608.00
2023-05-24T03:55:07.126Z,613.00
2023-05-24T03:56:07.153Z,612.00
2023-05-24T03:57:07.144Z,615.00
2023-05-24T03:58:07.082Z,616.00
2023-05-24T03:59:07.098Z,618.00
2023-05-24T04:00:07.114Z,619.00
2023-05-24T04:01:07.073Z,619.00
2023-05-24T04:02:07.079Z,619.00
2023-05-24T04:03:07.182Z,620.00
2023-05-24T04:04:07.083Z,617.00
2023-05-24T04:05:07.037Z,612.00
2023-05-24T04:06:07.060Z,614.00
2023-05-24T04:07:07.053Z,621.00
2023-05-24T04:08:07.033Z,620.00
2023-05-24T04:09:07.032Z,620.00
2023-05-24T04:10:06.996Z,620.00
2023-05-24T04:11:07.001Z,620.00
2023-05-24T04:12:07.031Z,617.00
2023-05-24T04:13:06.996Z,619.00
2023-05-24T04:14:06.986Z,623.00
2023-05-24T04:15:06.967Z,623.00
2023-05-24T04:16:06.979Z,623.00
2023-05-24T04:17:07.029Z,621.00
2023-05-24T04:18:07.056Z,620.00
2023-05-24T04:19:06.920Z,623.00
2023-05-24T04:20:06.991Z,620.00
2023-05-24T04:21:06.936Z,619.00
2023-05-24T04:22:06.904Z,621.00
2023-05-24T04:23:06.924Z,620.00
2023-05-24T04:24:06.922Z,617.00
2023-05-24T04:25:07.014Z,621.00
2023-05-24T04:26:06.913Z,623.00
2023-05-24T04:27:06.877Z,622.00
2023-05-24T04:28:06.912Z,623.00
2023-05-24T04:29:06.865Z,620.00
2023-05-24T04:30:06.879Z,622.00
2023-05-24T04:31:06.953Z,622.00
2023-05-24T04:32:06.836Z,620.00
2023-05-24T04:33:06.986Z,620.00
2023-05-24T04:34:06.839Z,622.00
2023-05-24T04:35:06.806Z,628.00
2023-05-24T04:36:06.847Z,624.00
2023-05-24T04:37:06.830Z,620.00
2023-05-24T04:38:06.802Z,622.00
2023-05-24T04:39:06.824Z,618.00
2023-05-24T04:40:06.790Z,618.00
2023-05-24T04:41:06.791Z,616.00
2023-05-24T04:42:06.769Z,616.00
2023-05-24T04:43:06.777Z,616.00
2023-05-24T04:44:06.769Z,614.00
2023-05-24T04:45:06.745Z,619.00
2023-05-24T04:46:08.937Z,617.00
2023-05-24T04:47:07.227Z,621.00
2023-05-24T04:48:07.070Z,614.00
2023-05-24T04:49:07.045Z,613.00
2023-05-24T04:50:07.076Z,614.00
2023-05-24T04:51:07.126Z,621.00
2023-05-24T04:52:07.136Z,624.00
2023-05-24T04:53:07.167Z,624.00
2023-05-24T04:54:07.215Z,623.00
2023-05-24T04:55:07.216Z,623.00
2023-05-24T04:56:07.239Z,622.00
2023-05-24T04:57:07.248Z,621.00
2023-05-24T04:58:07.271Z,630.00
2023-05-24T04:59:07.285Z,629.00
2023-05-24T05:00:07.326Z,630.00
2023-05-24T05:01:07.349Z,629.00
2023-05-24T05:02:07.463Z,633.00
2023-05-24T05:03:07.473Z,638.00
2023-05-24T05:04:07.575Z,639.00
2023-05-24T05:05:07.422Z,639.00
2023-05-24T05:06:07.447Z,644.00
2023-05-24T05:07:07.454Z,648.00
2023-05-24T05:08:07.465Z,642.00
2023-05-24T05:09:07.484Z,640.00
2023-05-24T05:10:07.519Z,642.00
2023-05-24T05:11:07.540Z,641.00
2023-05-24T05:12:07.553Z,635.00
2023-05-24T05:13:07.568Z,637.00
2023-05-24T05:14:07.588Z,636.00
2023-05-24T05:15:07.599Z,637.00
2023-05-24T05:16:07.626Z,637.00
2023-05-24T05:17:07.658Z,639.00
2023-05-24T05:18:07.734Z,639.00
2023-05-24T05:19:07.686Z,642.00
2023-05-24T05:20:07.741Z,650.00
2023-05-24T05:21:07.722Z,651.00
2023-05-24T05:22:07.761Z,648.00
2023-05-24T05:23:07.768Z,652.00
2023-05-24T05:24:07.757Z,654.00
2023-05-24T05:25:07.804Z,652.00
2023-05-24T05:26:07.805Z,657.00
2023-05-24T05:27:07.815Z,654.00
2023-05-24T05:28:07.853Z,655.00
2023-05-24T05:29:07.859Z,656.00
2023-05-24T05:30:07.843Z,652.00
2023-05-24T05:31:07.857Z,657.00
2023-05-24T05:32:07.916Z,662.00
2023-05-24T05:33:07.991Z,663.00
2023-05-24T05:34:07.888Z,666.00
2023-05-24T05:35:07.941Z,673.00
2023-05-24T05:36:07.924Z,666.00
2023-05-24T05:37:07.940Z,676.00
2023-05-24T05:38:07.949Z,676.00
2023-05-24T05:39:07.962Z,680.00
2023-05-24T05:40:07.954Z,682.00
2023-05-24T05:41:07.971Z,676.00
2023-05-24T05:42:07.968Z,676.00
2023-05-24T05:43:07.967Z,682.00
2023-05-24T05:44:07.997Z,690.00
2023-05-24T05:45:08.109Z,690.00
2023-05-24T05:46:08.006Z,688.00
2023-05-24T05:47:07.996Z,676.00
2023-05-24T05:48:08.078Z,673.00
2023-05-24T05:49:08.045Z,679.00
2023-05-24T05:50:08.043Z,682.00
2023-05-24T05:51:08.035Z,680.00
2023-05-24T05:52:08.035Z,692.00
2023-05-24T05:53:08.062Z,696.00
2023-05-24T05:54:08.021Z,698.00
2023-05-24T05:55:08.025Z,692.00
2023-05-24T05:56:08.075Z,709.00
2023-05-24T05:57:08.078Z,700.00
2023-05-24T05:58:08.060Z,703.00
2023-05-24T05:59:08.107Z,702.00
2023-05-24T06:00:08.066Z,695.00
2023-05-24T06:01:08.089Z,700.00
2023-05-24T06:02:08.217Z,701.00
2023-05-24T06:03:08.252Z,702.00
2023-05-24T06:04:08.328Z,697.00
2023-05-24T06:05:08.175Z,693.00
2023-05-24T06:06:08.167Z,698.00
2023-05-24T06:07:08.165Z,706.00
2023-05-24T06:08:08.199Z,706.00
2023-05-24T06:09:08.204Z,711.00
2023-05-24T06:10:08.187Z,711.00
2023-05-24T06:11:08.222Z,705.00
2023-05-24T06:12:08.171Z,695.00
2023-05-24T06:13:08.207Z,682.00
2023-05-24T06:14:08.221Z,673.00
2023-05-24T06:15:08.263Z,667.00
2023-05-24T06:16:08.274Z,663.00
2023-05-24T06:17:08.280Z,659.00
2023-05-24T06:18:08.270Z,658.00
2023-05-24T06:19:08.306Z,659.00
2023-05-24T06:20:08.376Z,657.00
2023-05-24T06:21:08.326Z,664.00
2023-05-24T06:22:08.303Z,666.00
2023-05-24T06:23:08.339Z,664.00
2023-05-24T06:24:08.375Z,669.00
2023-05-24T06:25:08.386Z,677.00
2023-05-24T06:26:08.372Z,684.00
2023-05-24T06:27:08.389Z,683.00
2023-05-24T06:28:08.421Z,676.00
2023-05-24T06:29:08.438Z,692.00
2023-05-24T06:30:08.491Z,692.00
2023-05-24T06:31:08.485Z,690.00
2023-05-24T06:32:08.515Z,685.00
2023-05-24T06:33:08.502Z,687.00
2023-05-24T06:34:08.512Z,689.00
2023-05-24T06:35:08.535Z,706.00
2023-05-24T06:36:08.538Z,698.00
2023-05-24T06:37:08.559Z,704.00
2023-05-24T06:38:08.577Z,701.00
2023-05-24T06:39:08.550Z,702.00
2023-05-24T06:40:08.565Z,711.00
2023-05-24T06:41:08.606Z,713.00
2023-05-24T06:42:08.604Z,710.00
2023-05-24T06:43:08.588Z,705.00
2023-05-24T06:44:08.610Z,708.00
2023-05-24T06:45:08.733Z,724.00
2023-05-24T06:46:08.624Z,702.00
2023-05-24T06:47:08.680Z,707.00
2023-05-24T06:48:08.799Z,691.00
2023-05-24T06:49:08.736Z,698.00
2023-05-24T06:50:08.657Z,688.00
2023-05-24T06:51:08.649Z,682.00
2023-05-24T06:52:08.697Z,680.00
2023-05-24T06:53:08.659Z,666.00
2023-05-24T06:54:08.685Z,659.00
2023-05-24T06:55:08.714Z,663.00
2023-05-24T06:56:08.705Z,658.00
2023-05-24T06:57:08.689Z,660.00
2023-05-24T06:58:08.698Z,660.00
2023-05-24T06:59:08.747Z,659.00
2023-05-24T07:00:08.761Z,653.00
2023-05-24T07:01:08.871Z,651.00
2023-05-24T07:02:08.770Z,651.00
2023-05-24T07:03:08.780Z,649.00
2023-05-24T07:04:08.807Z,648.00
2023-05-24T07:05:08.774Z,650.00
2023-05-24T07:06:08.794Z,651.00
2023-05-24T07:07:08.790Z,646.00
2023-05-24T07:08:08.797Z,649.00
2023-05-24T07:09:08.810Z,648.00
2023-05-24T07:10:08.838Z,650.00
2023-05-24T07:11:08.885Z,651.00
2023-05-24T07:12:09.279Z,653.00
2023-05-24T07:13:08.811Z,643.00
2023-05-24T07:14:10.923Z,639.00
2023-05-24T07:15:08.837Z,635.00
2023-05-24T07:16:08.832Z,638.00
2023-05-24T07:17:08.957Z,642.00
2023-05-24T07:18:08.937Z,642.00
2023-05-24T07:19:08.833Z,641.00
2023-05-24T07:20:09.026Z,642.00
2023-05-24T07:21:08.915Z,645.00
2023-05-24T07:22:08.854Z,638.00
2023-05-24T07:23:08.873Z,638.00
2023-05-24T07:24:08.870Z,641.00
2023-05-24T07:25:08.865Z,641.00
2023-05-24T07:26:08.880Z,644.00
2023-05-24T07:27:08.866Z,642.00
2023-05-24T07:28:08.878Z,644.00
2023-05-24T07:29:08.883Z,644.00
2023-05-24T07:30:19.698Z,645.00
2023-05-24T07:31:09.907Z,645.00
2023-05-24T07:32:08.911Z,646.00
2023-05-24T07:33:09.039Z,642.00
2023-05-24T07:34:08.859Z,642.00
2023-05-24T07:35:08.874Z,643.00
2023-05-24T07:36:08.881Z,644.00
2023-05-24T07:37:08.823Z,646.00
2023-05-24T07:38:08.855Z,647.00
2023-05-24T07:39:08.812Z,647.00
2023-05-24T07:40:08.811Z,646.00
2023-05-24T07:41:08.790Z,642.00
2023-05-24T07:42:08.804Z,638.00
2023-05-24T07:43:08.782Z,701.00
2023-05-24T07:44:08.799Z,746.00
2023-05-24T07:45:08.773Z,716.00
2023-05-24T07:46:08.785Z,812.00
2023-05-24T07:47:08.749Z,861.00
2023-05-24T07:48:08.825Z,883.00
2023-05-24T07:49:08.767Z,788.00
2023-05-24T07:50:08.738Z,785.00
2023-05-24T07:51:08.740Z,816.00
2023-05-24T07:52:08.728Z,871.00
2023-05-24T07:53:08.717Z,943.00
2023-05-24T07:54:08.708Z,982.00
2023-05-24T07:55:08.721Z,989.00
2023-05-24T07:56:08.689Z,1032.00
2023-05-24T07:57:09.544Z,1077.00
2023-05-24T07:58:08.746Z,1143.00
2023-05-24T07:59:08.793Z,1181.00
2023-05-24T08:00:08.819Z,1235.00
2023-05-24T08:01:08.928Z,1242.00
2023-05-24T08:02:08.852Z,1283.00
2023-05-24T08:03:09.039Z,1260.00
2023-05-24T08:04:08.974Z,1285.00
2023-05-24T08:05:08.915Z,1314.00
2023-05-24T08:06:08.885Z,1320.00
2023-05-24T08:07:10.869Z,1306.00
2023-05-24T08:08:08.900Z,1312.00
2023-05-24T08:09:08.915Z,1338.00
2023-05-24T08:10:08.913Z,1362.00
2023-05-24T08:11:08.935Z,1384.00
2023-05-24T08:12:08.900Z,1407.00
2023-05-24T08:13:08.910Z,1428.00
2023-05-24T08:14:08.912Z,1440.00
2023-05-24T08:15:08.969Z,1458.00
2023-05-24T08:16:09.043Z,1477.00
2023-05-24T08:17:09.031Z,1483.00
2023-05-24T08:18:09.150Z,1474.00
2023-05-24T08:19:09.157Z,1502.00
2023-05-24T08:20:09.316Z,1518.00
2023-05-24T08:21:09.314Z,1498.00
2023-05-24T08:22:09.358Z,1437.00
2023-05-24T08:23:09.397Z,1451.00
2023-05-24T08:24:09.794Z,1498.00
2023-05-24T08:25:09.533Z,1516.00
2023-05-24T08:26:09.608Z,1534.00
2023-05-24T08:27:09.651Z,1555.00
2023-05-24T08:28:09.760Z,1563.00
2023-05-24T08:29:09.781Z,1581.00
2023-05-24T08:30:09.832Z,1592.00
2023-05-24T08:31:09.899Z,1599.00
2023-05-24T08:32:10.040Z,1614.00
2023-05-24T08:33:10.021Z,1611.00
2023-05-24T08:34:10.010Z,1612.00
2023-05-24T08:35:19.590Z,1610.00
2023-05-24T08:36:11.058Z,1610.00
2023-05-24T08:37:10.084Z,1581.00
2023-05-24T08:38:10.048Z,1615.00
2023-05-24T08:39:10.043Z,1470.00
2023-05-24T08:40:10.100Z,1504.00
2023-05-24T08:41:10.053Z,1572.00
2023-05-24T08:42:10.615Z,1627.00
2023-05-24T08:43:10.006Z,1675.00
2023-05-24T08:44:10.032Z,1692.00
2023-05-24T08:45:09.997Z,1714.00
2023-05-24T08:46:10.015Z,1736.00
2023-05-24T08:47:09.992Z,1749.00
2023-05-24T08:48:10.103Z,1754.00
2023-05-24T08:49:10.069Z,1747.00
2023-05-24T08:50:09.987Z,1745.00
2023-05-24T08:51:09.948Z,1753.00
2023-05-24T08:52:09.965Z,1734.00
2023-05-24T08:53:10.001Z,1717.00
2023-05-24T08:54:10.021Z,1673.00
2023-05-24T08:55:10.021Z,1699.00
2023-05-24T08:56:10.066Z,1712.00
2023-05-24T08:57:10.084Z,1751.00
2023-05-24T08:58:10.077Z,1761.00
2023-05-24T08:59:10.112Z,1756.00
2023-05-24T09:00:10.153Z,1773.00
2023-05-24T09:01:10.211Z,1778.00
2023-05-24T09:02:10.189Z,1784.00
2023-05-24T09:03:10.246Z,1780.00
2023-05-24T09:04:10.267Z,1780.00
2023-05-24T09:05:10.204Z,1771.00
2023-05-24T09:06:10.176Z,1766.00
2023-05-24T09:07:10.174Z,1766.00
2023-05-24T09:08:10.249Z,1780.00
2023-05-24T09:09:10.208Z,1786.00
2023-05-24T09:10:10.231Z,1782.00
2023-05-24T09:11:10.240Z,1782.00
2023-05-24T09:12:11.096Z,1783.00
2023-05-24T09:13:10.264Z,1784.00
2023-05-24T09:14:10.273Z,1785.00
2023-05-24T09:15:10.257Z,1790.00
2023-05-24T09:16:10.266Z,1791.00
2023-05-24T09:17:10.210Z,1811.00
2023-05-24T09:18:10.245Z,1815.00
2023-05-24T09:19:10.176Z,1822.00
2023-05-24T09:20:10.400Z,1809.00
2023-05-24T09:21:10.199Z,1813.00
2023-05-24T09:22:10.172Z,1803.00
2023-05-24T09:23:10.157Z,1808.00
2023-05-24T09:24:10.156Z,1802.00
2023-05-24T09:25:10.274Z,1769.00
2023-05-24T09:26:10.196Z,1801.00
2023-05-24T09:27:10.144Z,1804.00
2023-05-24T09:28:10.191Z,1733.00
2023-05-24T09:29:10.115Z,1740.00
2023-05-24T09:30:10.395Z,1723.00
2023-05-24T09:31:10.139Z,1732.00
2023-05-24T09:32:10.099Z,1740.00
2023-05-24T09:33:10.147Z,1749.00
2023-05-24T09:34:10.076Z,1747.00
2023-05-24T09:35:10.416Z,1747.00
2023-05-24T09:36:10.107Z,1746.00
2023-05-24T09:37:10.083Z,1753.00
2023-05-24T09:38:10.064Z,1749.00
2023-05-24T09:39:10.032Z,1736.00
2023-05-24T09:40:10.059Z,1733.00
2023-05-24T09:41:10.040Z,1743.00
2023-05-24T09:42:10.031Z,1735.00
2023-05-24T09:43:10.202Z,1731.00
2023-05-24T09:44:10.012Z,1730.00
2023-05-24T09:45:10.062Z,1734.00
2023-05-24T09:46:10.003Z,1726.00
2023-05-24T09:47:10.037Z,1728.00
2023-05-24T09:48:10.033Z,1730.00
2023-05-24T09:49:09.985Z,1724.00
2023-05-24T09:50:09.969Z,1722.00
2023-05-24T09:51:10.112Z,1722.00
2023-05-24T09:52:10.093Z,1721.00
2023-05-24T09:53:09.935Z,1717.00
2023-05-24T09:54:09.946Z,1714.00
2023-05-24T09:55:09.950Z,1709.00
2023-05-24T09:56:09.965Z,1708.00
2023-05-24T09:57:09.926Z,1707.00
2023-05-24T09:58:09.893Z,1705.00
2023-05-24T09:59:09.949Z,1702.00
2023-05-24T10:00:09.877Z,1698.00
2023-05-24T10:01:09.919Z,1695.00
2023-05-24T10:02:09.909Z,1690.00
2023-05-24T10:03:09.923Z,1687.00
2023-05-24T10:04:10.518Z,1681.00
2023-05-24T10:05:09.887Z,1682.00
2023-05-24T10:06:09.842Z,1682.00
2023-05-24T10:07:09.832Z,1678.00
2023-05-24T10:08:09.833Z,1672.00
2023-05-24T10:09:09.950Z,1672.00
2023-05-24T10:10:09.813Z,1670.00
2023-05-24T10:11:09.823Z,1671.00
2023-05-24T10:12:09.838Z,1666.00
2023-05-24T10:13:09.789Z,1669.00
2023-05-24T10:14:09.779Z,1666.00
2023-05-24T10:15:09.767Z,1653.00
2023-05-24T10:16:09.907Z,1654.00
2023-05-24T10:17:11.382Z,1648.00
2023-05-24T10:18:12.236Z,1646.00
2023-05-24T10:19:09.789Z,1647.00
2023-05-24T10:20:09.781Z,1647.00
2023-05-24T10:21:09.815Z,1647.00
2023-05-24T10:22:09.734Z,1646.00
2023-05-24T10:23:09.732Z,1648.00
2023-05-24T10:24:09.730Z,1636.00
2023-05-24T10:25:09.749Z,1635.00
2023-05-24T10:26:09.777Z,1633.00
2023-05-24T10:27:09.695Z,1640.00
2023-05-24T10:28:09.696Z,1630.00
2023-05-24T10:29:09.657Z,1630.00
2023-05-24T10:30:12.173Z,1621.00
2023-05-24T10:31:09.700Z,1622.00
2023-05-24T10:32:09.761Z,1622.00
2023-05-24T10:33:09.727Z,1622.00
2023-05-24T10:34:09.664Z,1626.00
2023-05-24T10:35:09.638Z,1611.00
2023-05-24T10:36:09.980Z,1607.00
2023-05-24T10:37:09.609Z,1610.00
2023-05-24T10:38:09.652Z,1612.00
2023-05-24T10:39:09.596Z,1603.00
2023-05-24T10:40:09.613Z,1604.00
2023-05-24T10:41:09.724Z,1602.00
2023-05-24T10:42:10.127Z,1594.00
2023-05-24T10:43:09.588Z,1593.00
2023-05-24T10:44:10.284Z,1589.00
2023-05-24T10:45:09.572Z,1600.00
2023-05-24T10:46:09.581Z,1588.00
2023-05-24T10:47:09.569Z,1583.00
2023-05-24T10:48:09.599Z,1569.00
2023-05-24T10:49:09.581Z,1577.00
2023-05-24T10:50:09.540Z,1573.00
2023-05-24T10:51:09.515Z,1561.00
2023-05-24T10:52:09.521Z,1575.00
2023-05-24T10:53:09.488Z,1565.00
2023-05-24T10:54:09.504Z,1564.00
2023-05-24T10:55:09.571Z,1558.00
2023-05-24T10:56:09.474Z,1552.00
2023-05-24T10:57:09.507Z,1548.00
2023-05-24T10:58:09.481Z,1553.00
2023-05-24T10:59:09.480Z,1556.00
2023-05-24T11:00:10.090Z,1571.00
2023-05-24T11:01:09.450Z,1620.00
2023-05-24T11:02:09.636Z,1607.00
2023-05-24T11:03:09.798Z,1583.00
2023-05-24T11:04:09.433Z,1501.00
2023-05-24T11:05:09.488Z,1569.00
2023-05-24T11:06:09.414Z,1551.00
2023-05-24T11:07:09.436Z,1584.00
2023-05-24T11:08:09.472Z,1593.00
2023-05-24T11:09:09.396Z,1612.00
2023-05-24T11:10:09.412Z,1615.00
2023-05-24T11:11:23.328Z,1636.00
2023-05-24T11:12:10.364Z,1637.00
2023-05-24T11:13:09.379Z,1643.00
2023-05-24T11:14:09.349Z,1651.00
2023-05-24T11:15:09.363Z,1670.00
2023-05-24T11:16:09.381Z,1690.00
2023-05-24T11:17:09.350Z,1701.00
2023-05-24T11:18:11.028Z,1703.00
2023-05-24T11:19:09.325Z,1702.00
2023-05-24T11:20:09.377Z,1708.00
2023-05-24T11:21:09.337Z,1713.00
2023-05-24T11:22:09.418Z,1720.00
2023-05-24T11:23:09.523Z,1727.00
2023-05-24T11:24:09.546Z,1725.00
2023-05-24T11:25:09.568Z,1704.00
2023-05-24T11:26:09.625Z,1712.00
2023-05-24T11:27:09.696Z,1707.00
2023-05-24T11:28:09.751Z,1715.00
2023-05-24T11:29:09.777Z,1709.00
2023-05-24T11:30:09.871Z,1710.00
2023-05-24T11:31:09.964Z,1699.00
2023-05-24T11:32:10.163Z,1596.00
2023-05-24T11:33:10.065Z,1495.00
2023-05-24T11:34:10.093Z,1515.00
2023-05-24T11:35:10.077Z,1474.00
2023-05-24T11:36:10.049Z,1472.00
2023-05-24T11:37:10.072Z,1442.00
2023-05-24T11:38:10.069Z,1445.00
2023-05-24T11:39:10.054Z,1443.00
2023-05-24T11:40:10.240Z,1426.00
2023-05-24T11:41:10.085Z,1377.00
2023-05-24T11:42:10.109Z,1350.00
2023-05-24T11:43:10.069Z,1328.00
2023-05-24T11:44:10.106Z,1313.00
2023-05-24T11:45:10.141Z,1317.00
2023-05-24T11:46:10.194Z,1282.00
2023-05-24T11:47:10.229Z,1279.00
2023-05-24T11:48:10.281Z,1294.00
2023-05-24T11:49:10.233Z,1264.00
2023-05-24T11:50:10.384Z,1253.00
2023-05-24T11:51:10.310Z,1250.00
2023-05-24T11:52:10.366Z,1228.00
2023-05-24T11:53:10.402Z,1220.00
2023-05-24T11:54:10.407Z,1223.00
2023-05-24T11:55:10.489Z,1188.00
2023-05-24T11:56:10.528Z,1165.00
2023-05-24T11:57:10.560Z,1187.00
2023-05-24T11:58:10.606Z,1164.00
2023-05-24T11:59:10.675Z,1149.00
2023-05-24T12:00:10.759Z,1150.00
2023-05-24T12:01:10.803Z,1133.00
2023-05-24T12:02:10.930Z,1111.00
2023-05-24T12:03:10.990Z,1076.00
2023-05-24T12:04:11.008Z,1060.00
2023-05-24T12:05:11.018Z,1043.00
2023-05-24T12:06:11.066Z,1021.00
2023-05-24T12:07:11.132Z,1003.00
2023-05-24T12:08:12.698Z,988.00
2023-05-24T12:09:11.166Z,942.00
2023-05-24T12:10:11.208Z,927.00
2023-05-24T12:11:11.232Z,919.00
2023-05-24T12:12:11.245Z,909.00
2023-05-24T12:13:11.248Z,910.00
2023-05-24T12:14:11.241Z,901.00
2023-05-24T12:15:11.275Z,887.00
2023-05-24T12:16:11.289Z,900.00
2023-05-24T12:17:11.256Z,874.00
2023-05-24T12:18:11.533Z,893.00
2023-05-24T12:19:20.099Z,876.00
2023-05-24T12:20:12.358Z,877.00
2023-05-24T12:21:11.214Z,879.00